CST,Max TemperatureF,Mean TemperatureF,Min TemperatureF,Max Dew PointF,MeanDew PointF,Min DewpointF,Max Humidity, Mean Humidity, Min Humidity, Max Sea Level PressureIn, Mean Sea Level PressureIn, Min Sea Level PressureIn, Max VisibilityMiles, Mean VisibilityMiles, Min VisibilityMiles, Max Wind SpeedMPH, Mean Wind SpeedMPH, Max Gust SpeedMPH,PrecipitationIn, CloudCover, Events, WindDirDegrees
2013-1-1,21,12,3,19,13,3,100,92,84,30.28,30.14,29.97,10,7,1,18,10,22,0.00,7,,204
2013-1-2,29,15,1,25,18,2,96,87,78,30.28,30.01,29.87,10,10,4,28,12,33,0.00,7,,304
2013-1-3,21,13,4,14,9,1,92,86,80,30.36,30.27,30.14,10,10,5,21,12,24,0.00,3,,274
2013-1-4,23,14,5,16,10,4,92,82,71,30.18,30.14,30.09,10,10,10,21,6,25,0.00,0,,216
2013-1-5,23,12,0,15,9,-1,96,82,68,30.20,30.05,29.91,10,8,1,24,11,29,T,4,,316
2013-1-6,27,13,-2,20,9,0,100,88,75,30.28,30.13,29.88,10,9,4,21,8,25,0.00,1,,208
2013-1-7,32,25,17,24,19,16,92,81,69,30.00,29.96,29.87,10,10,10,22,7,25,0.00,2,,214
2013-1-8,35,26,16,29,22,14,92,83,74,30.01,29.86,29.74,10,10,6,20,11,30,0.00,3,,214
2013-1-9,31,24,16,26,22,15,92,82,72,30.31,30.20,30.02,10,10,10,24,13,31,0.00,0,,212
2013-1-10,38,33,27,33,28,23,100,77,54,30.14,29.82,29.51,10,8,2,28,18,35,0.04,5,,171
2013-1-11,34,23,12,34,27,8,100,92,84,29.57,29.42,29.32,10,2,0,28,11,32,0.04,8,Fog-Rain-Snow,279
2013-1-12,12,7,1,9,0,-3,87,83,79,30.20,29.89,29.53,10,5,1,26,17,33,0.04,8,Snow,313
2013-1-13,8,2,-4,3,-2,-8,91,82,73,30.31,30.24,30.13,10,10,10,18,8,22,0.00,6,,290
2013-1-14,9,1,-8,4,-1,-11,96,88,80,30.45,30.36,30.29,10,10,10,15,7,17,0.00,3,,227
2013-1-15,25,13,1,23,7,-3,87,77,67,30.27,30.04,29.73,10,10,3,24,12,29,0.00,4,Snow,197
2013-1-16,36,19,2,31,22,-5,100,81,61,30.30,29.86,29.65,10,8,2,21,12,24,0.00,6,Snow,297
2013-1-17,25,13,1,22,11,-3,92,79,66,30.46,30.34,30.12,10,10,10,18,6,22,0.00,7,,163
2013-1-18,38,31,23,29,25,21,92,81,69,30.07,29.89,29.77,10,10,7,17,9,22,0.00,2,,207
2013-1-19,36,17,-2,29,12,-7,92,81,69,30.38,30.06,29.76,10,7,1,38,17,45,0.00,5,Snow,313
2013-1-20,7,-1,-10,1,-4,-18,87,76,64,30.50,30.36,30.27,10,6,1,26,14,33,0.01,6,Snow,307
2013-1-21,0,-6,-12,-8,-13,-18,79,72,64,30.48,30.43,30.39,10,10,10,22,14,28,0.00,0,,299
2013-1-22,11,2,-7,8,-2,-10,92,80,68,30.41,30.32,30.10,10,10,10,14,6,16,0.00,5,,214
2013-1-23,13,1,-11,9,-3,-18,92,78,64,30.66,30.37,30.09,10,10,3,26,15,30,0.00,3,,345
2013-1-24,10,0,-11,3,-7,-19,80,72,64,30.67,30.40,30.12,10,10,10,25,14,30,0.00,2,,156
2013-1-25,20,9,-2,16,2,-7,84,74,63,30.34,30.18,29.97,10,10,4,28,12,36,0.00,3,Snow,318
2013-1-26,25,11,-3,19,6,-7,86,76,66,30.33,30.15,29.96,10,10,10,21,10,24,0.00,0,,145
2013-1-27,33,29,25,32,28,19,100,88,75,29.95,29.80,29.70,10,6,0,15,8,18,0.00,5,Fog,161
2013-1-28,32,30,27,32,29,27,100,93,85,29.87,29.76,29.62,8,3,0,15,8,17,0.03,8,Fog-Rain-Snow,259
2013-1-29,28,23,18,27,21,14,96,89,81,29.91,29.73,29.59,10,6,0,28,13,33,0.08,6,Fog-Snow,347
2013-1-30,19,4,-11,16,2,-16,92,84,75,30.00,29.87,29.79,10,8,2,29,18,35,0.00,6,Snow,331
2013-1-31,-10,-13,-16,-16,-18,-20,78,71,64,30.43,30.19,29.86,10,7,2,28,17,35,0.00,6,,315